createdAt,value
2019-05-04T00:00:45.272Z,43.60
2019-05-04T00:01:45.435Z,44.60
2019-05-04T00:02:45.142Z,44.50
2019-05-04T00:03:45.167Z,46.20
2019-05-04T00:04:45.223Z,45.60
2019-05-04T00:05:45.279Z,46.60
2019-05-04T00:06:50.361Z,46.10
2019-05-04T00:07:45.381Z,45.20
2019-05-04T00:08:46.572Z,47.10
2019-05-04T00:09:45.744Z,45.50
2019-05-04T00:10:45.520Z,46.60
2019-05-04T00:11:45.660Z,49.40
2019-05-04T00:12:45.619Z,50.30
2019-05-04T00:13:45.642Z,48.20
2019-05-04T00:14:45.725Z,48.40
2019-05-04T00:15:45.760Z,49.30
2019-05-04T00:16:45.797Z,48.30
2019-05-04T00:17:45.828Z,47.20
2019-05-04T00:18:45.908Z,48.40
2019-05-04T00:19:45.960Z,48.40
2019-05-04T00:20:53.076Z,48.50
2019-05-04T00:21:46.090Z,50.70
2019-05-04T00:22:46.096Z,48.80
2019-05-04T00:23:46.134Z,47.80
2019-05-04T00:24:46.195Z,47.50
2019-05-04T00:25:49.067Z,49.80
2019-05-04T00:26:46.336Z,49.50
2019-05-04T00:27:46.317Z,48.50
2019-05-04T00:28:46.369Z,48.50
2019-05-04T00:29:46.432Z,48.90
2019-05-04T00:30:46.522Z,49.10
2019-05-04T00:31:46.521Z,49.40
2019-05-04T00:32:46.552Z,46.80
2019-05-04T00:33:46.610Z,45.00
2019-05-04T00:34:46.679Z,46.10
2019-05-04T00:35:46.713Z,47.70
2019-05-04T00:36:46.769Z,47.60
2019-05-04T00:37:46.809Z,46.10
2019-05-04T00:38:46.879Z,46.40
2019-05-04T00:39:46.892Z,45.60
2019-05-04T00:40:46.957Z,47.50
2019-05-04T00:41:47.013Z,46.10
2019-05-04T00:42:47.060Z,47.10
2019-05-04T00:43:47.091Z,50.00
2019-05-04T00:44:47.183Z,48.00
2019-05-04T00:45:47.236Z,48.10
2019-05-04T00:46:47.231Z,47.60
2019-05-04T00:47:47.269Z,47.20
2019-05-04T00:48:47.316Z,47.00
2019-05-04T00:49:47.382Z,47.90
2019-05-04T00:50:47.413Z,49.20
2019-05-04T00:51:47.488Z,45.90
2019-05-04T00:52:47.526Z,48.60
2019-05-04T00:53:47.570Z,46.30
2019-05-04T00:54:47.633Z,46.20
2019-05-04T00:55:47.657Z,46.70
2019-05-04T00:56:47.722Z,46.40
2019-05-04T00:57:47.776Z,46.70
2019-05-04T00:58:47.789Z,47.90
2019-05-04T00:59:47.867Z,46.10
2019-05-04T01:00:47.911Z,44.10
2019-05-04T01:01:47.939Z,44.20
2019-05-04T01:02:47.995Z,42.30
2019-05-04T01:03:48.039Z,45.70
2019-05-04T01:04:48.107Z,44.50
2019-05-04T01:05:48.150Z,44.70
2019-05-04T01:06:48.186Z,45.60
2019-05-04T01:07:48.229Z,44.10
2019-05-04T01:08:48.285Z,42.80
2019-05-04T01:09:48.320Z,42.90
2019-05-04T01:10:48.393Z,41.10
2019-05-04T01:11:48.433Z,40.60
2019-05-04T01:12:48.474Z,40.60
2019-05-04T01:13:48.534Z,40.60
2019-05-04T01:14:48.592Z,42.60
2019-05-04T01:15:48.625Z,41.90
2019-05-04T01:16:48.653Z,39.70
2019-05-04T01:17:48.730Z,40.00
2019-05-04T01:18:48.782Z,37.60
2019-05-04T01:19:48.805Z,36.80
2019-05-04T01:20:48.868Z,34.80
2019-05-04T01:21:48.922Z,32.30
2019-05-04T01:22:48.972Z,29.70
2019-05-04T01:23:49.018Z,30.30
2019-05-04T01:24:49.059Z,31.40
2019-05-04T01:25:49.116Z,31.80
2019-05-04T01:26:49.135Z,30.20
2019-05-04T01:27:49.192Z,30.20
2019-05-04T01:28:49.248Z,27.20
2019-05-04T01:29:49.296Z,28.20
2019-05-04T01:30:49.350Z,28.00
2019-05-04T01:31:49.385Z,27.80
2019-05-04T01:32:49.443Z,28.90
2019-05-04T01:33:49.484Z,27.40
2019-05-04T01:34:49.573Z,27.40
2019-05-04T01:35:49.587Z,28.30
2019-05-04T01:36:49.668Z,28.10
2019-05-04T01:37:49.682Z,27.90
2019-05-04T01:38:49.748Z,27.20
2019-05-04T01:39:49.771Z,26.20
2019-05-04T01:40:49.849Z,26.20
2019-05-04T01:41:49.858Z,27.10
2019-05-04T01:42:49.909Z,26.40
2019-05-04T01:43:49.951Z,27.80
2019-05-04T01:44:50.041Z,27.90
2019-05-04T01:45:50.063Z,27.20
2019-05-04T01:46:50.110Z,25.40
2019-05-04T01:47:50.149Z,24.50
2019-05-04T01:48:50.223Z,24.30
2019-05-04T01:49:50.252Z,24.20
2019-05-04T01:50:50.294Z,25.80
2019-05-04T01:51:50.391Z,26.00
2019-05-04T01:52:50.397Z,25.60
2019-05-04T01:53:50.429Z,25.10
2019-05-04T01:54:50.482Z,25.00
2019-05-04T01:55:50.567Z,24.40
2019-05-04T01:56:50.571Z,24.60
2019-05-04T01:57:50.672Z,24.00
2019-05-04T01:58:50.699Z,24.20
2019-05-04T01:59:50.730Z,24.70
2019-05-04T02:00:50.778Z,24.50
2019-05-04T02:01:50.832Z,24.00
2019-05-04T02:02:50.891Z,23.00
2019-05-04T02:03:50.918Z,23.10
2019-05-04T02:04:51.518Z,23.50
2019-05-04T02:05:51.056Z,21.50
2019-05-04T02:06:51.066Z,23.50
2019-05-04T02:07:51.147Z,22.20
2019-05-04T02:08:51.175Z,21.80
2019-05-04T02:09:51.219Z,20.90
2019-05-04T02:10:51.247Z,22.00
2019-05-04T02:11:51.309Z,22.70
2019-05-04T02:12:51.357Z,21.00
2019-05-04T02:13:51.404Z,21.80
2019-05-04T02:14:51.464Z,22.30
2019-05-04T02:15:51.522Z,17.90
2019-05-04T02:16:51.555Z,20.00
2019-05-04T02:17:51.578Z,19.10
2019-05-04T02:18:51.637Z,19.60
2019-05-04T02:19:51.685Z,19.90
2019-05-04T02:20:51.740Z,20.00
2019-05-04T02:21:51.792Z,20.20
2019-05-04T02:22:51.833Z,18.30
2019-05-04T02:23:51.880Z,17.70
2019-05-04T02:24:51.908Z,18.20
2019-05-04T02:25:51.957Z,18.60
2019-05-04T02:26:51.999Z,18.50
2019-05-04T02:27:52.078Z,18.20
2019-05-04T02:28:52.134Z,17.90
2019-05-04T02:29:52.176Z,17.90
2019-05-04T02:30:52.198Z,20.20
2019-05-04T02:31:52.265Z,18.60
2019-05-04T02:32:52.314Z,20.20
2019-05-04T02:33:52.365Z,19.50
2019-05-04T02:34:52.397Z,19.20
2019-05-04T02:35:52.431Z,20.50
2019-05-04T02:36:55.876Z,19.90
2019-05-04T02:38:07.537Z,19.10
2019-05-04T02:38:55.530Z,20.00
2019-05-04T02:39:52.635Z,21.30
2019-05-04T02:40:57.551Z,21.80
2019-05-04T02:41:55.088Z,21.10
2019-05-04T02:42:52.784Z,21.80
2019-05-04T02:43:55.185Z,22.00
2019-05-04T02:44:55.687Z,24.20
2019-05-04T02:45:55.814Z,23.10
2019-05-04T02:46:54.883Z,24.50
2019-05-04T02:47:55.420Z,23.60
2019-05-04T02:48:53.047Z,24.50
2019-05-04T02:49:55.959Z,24.20
2019-05-04T02:50:55.879Z,24.40
2019-05-04T02:51:56.146Z,24.80
2019-05-04T02:52:55.929Z,23.60
2019-05-04T02:53:55.562Z,24.90
2019-05-04T02:54:56.130Z,25.30
2019-05-04T02:55:55.383Z,25.70
2019-05-04T02:56:56.064Z,25.60
2019-05-04T02:57:55.945Z,27.00
2019-05-04T02:58:55.530Z,25.60
2019-05-04T02:59:56.444Z,24.50
2019-05-04T03:00:56.035Z,24.70
2019-05-04T03:01:55.378Z,24.10
2019-05-04T03:02:55.880Z,23.80
2019-05-04T03:03:56.049Z,24.10
2019-05-04T03:04:56.133Z,24.00
2019-05-04T03:05:56.294Z,25.30
2019-05-04T03:06:56.264Z,25.00
2019-05-04T03:07:55.502Z,25.40
2019-05-04T03:08:55.765Z,24.60
2019-05-04T03:09:55.526Z,25.30
2019-05-04T03:10:55.307Z,24.30
2019-05-04T03:11:55.846Z,24.50
2019-05-04T03:12:56.179Z,24.40
2019-05-04T03:13:56.094Z,24.90
2019-05-04T03:14:54.957Z,25.30
2019-05-04T03:15:55.256Z,24.20
2019-05-04T03:16:56.127Z,25.30
2019-05-04T03:17:55.715Z,24.70
2019-05-04T03:18:55.347Z,25.20
2019-05-04T03:19:57.154Z,25.30
2019-05-04T03:20:56.003Z,24.90
2019-05-04T03:21:55.865Z,25.00
2019-05-04T03:22:55.902Z,24.70
2019-05-04T03:23:55.215Z,24.30
2019-05-04T03:24:56.405Z,23.80
2019-05-04T03:25:56.074Z,23.60
2019-05-04T03:26:55.385Z,23.80
2019-05-04T03:27:56.290Z,24.50
2019-05-04T03:28:55.329Z,24.50
2019-05-04T03:29:55.693Z,24.60
2019-05-04T03:30:58.460Z,24.20
2019-05-04T03:31:58.056Z,24.10
2019-05-04T03:32:58.018Z,24.50
2019-05-04T03:33:58.126Z,24.60
2019-05-04T03:35:15.826Z,23.70
2019-05-04T03:36:05.690Z,24.20
2019-05-04T03:36:59.136Z,23.20
2019-05-04T03:37:56.123Z,23.80
2019-05-04T03:38:58.339Z,23.70
2019-05-04T03:39:56.834Z,24.00
2019-05-04T03:40:55.522Z,24.70
2019-05-04T03:41:55.576Z,23.70
2019-05-04T03:42:55.734Z,23.90
2019-05-04T03:43:56.116Z,23.80
2019-05-04T03:44:56.021Z,23.30
2019-05-04T03:45:55.744Z,24.10
2019-05-04T03:46:56.373Z,23.40
2019-05-04T03:47:56.185Z,23.00
2019-05-04T03:48:56.707Z,23.30
2019-05-04T03:49:55.938Z,22.50
2019-05-04T03:50:55.985Z,23.20
2019-05-04T03:51:56.032Z,23.10
2019-05-04T03:52:56.088Z,23.00
2019-05-04T03:53:56.132Z,23.10
2019-05-04T03:54:56.182Z,23.00
2019-05-04T03:55:56.395Z,21.60
2019-05-04T03:56:56.274Z,21.10
2019-05-04T03:57:56.345Z,22.10
2019-05-04T03:58:56.646Z,22.80
2019-05-04T03:59:56.419Z,22.00
2019-05-04T04:00:56.472Z,22.00
2019-05-04T04:01:56.569Z,20.80
2019-05-04T04:02:56.591Z,20.90
2019-05-04T04:03:56.706Z,20.60
2019-05-04T04:04:56.809Z,21.60
2019-05-04T04:05:56.782Z,21.20
2019-05-04T04:06:56.802Z,21.40
2019-05-04T04:07:56.830Z,22.20
2019-05-04T04:09:09.300Z,21.80
2019-05-04T04:09:56.976Z,22.10
2019-05-04T04:10:57.030Z,21.90
2019-05-04T04:11:57.038Z,22.30
2019-05-04T04:12:57.090Z,22.80
2019-05-04T04:13:57.144Z,23.20
2019-05-04T04:14:57.171Z,22.10
2019-05-04T04:15:57.218Z,23.00
2019-05-04T04:16:57.372Z,22.50
2019-05-04T04:17:57.326Z,21.40
2019-05-04T04:18:57.326Z,21.50
2019-05-04T04:19:57.390Z,21.70
2019-05-04T04:20:57.453Z,23.10
2019-05-04T04:21:57.575Z,21.90
2019-05-04T04:22:57.528Z,22.50
2019-05-04T04:23:57.532Z,22.20
2019-05-04T04:24:57.610Z,22.00
2019-05-04T04:25:57.691Z,22.90
2019-05-04T04:26:57.713Z,22.20
2019-05-04T04:27:57.769Z,23.70
2019-05-04T04:28:57.891Z,23.70
2019-05-04T04:29:57.856Z,23.90
2019-05-04T04:30:57.904Z,24.20
2019-05-04T04:31:57.960Z,24.30
2019-05-04T04:32:58.010Z,26.90
2019-05-04T04:34:01.660Z,26.00
2019-05-04T04:34:58.045Z,26.50
2019-05-04T04:35:58.190Z,28.80
2019-05-04T04:36:58.180Z,29.30
2019-05-04T04:37:58.224Z,29.10
2019-05-04T04:38:58.290Z,31.40
2019-05-04T04:39:58.272Z,31.50
2019-05-04T04:40:58.426Z,33.00
2019-05-04T04:41:58.429Z,34.60
2019-05-04T04:42:58.501Z,35.10
2019-05-04T04:43:58.505Z,37.60
2019-05-04T04:44:58.598Z,36.40
2019-05-04T04:45:58.696Z,37.00
2019-05-04T04:46:58.606Z,40.10
2019-05-04T04:48:15.724Z,39.70
2019-05-04T04:48:58.693Z,42.50
2019-05-04T04:49:58.739Z,46.20
2019-05-04T04:50:58.771Z,48.40
2019-05-04T04:51:58.826Z,52.00
2019-05-04T04:52:58.906Z,54.10
2019-05-04T04:53:58.927Z,55.00
2019-05-04T04:55:15.143Z,56.40
2019-05-04T04:55:58.991Z,55.00
2019-05-04T04:56:59.063Z,51.20
2019-05-04T04:57:59.097Z,52.50
2019-05-04T04:58:59.162Z,45.60
2019-05-04T04:59:59.194Z,46.10
2019-05-04T05:00:59.221Z,45.50
2019-05-04T05:01:59.321Z,40.40
2019-05-04T05:02:59.320Z,41.00
2019-05-04T05:03:59.372Z,41.60
2019-05-04T05:04:59.418Z,43.40
2019-05-04T05:05:59.470Z,43.40
2019-05-04T05:06:59.528Z,40.00
2019-05-04T05:07:59.575Z,41.10
2019-05-04T05:08:59.602Z,41.40
2019-05-04T05:09:59.642Z,36.40
2019-05-04T05:10:59.691Z,38.50
2019-05-04T05:11:59.739Z,39.50
2019-05-04T05:12:59.784Z,40.20
2019-05-04T05:13:59.833Z,38.90
2019-05-04T05:14:59.900Z,42.70
2019-05-04T05:15:59.909Z,38.90
2019-05-04T05:17:00.029Z,38.50
2019-05-04T05:18:00.034Z,38.50
2019-05-04T05:19:00.078Z,40.10
2019-05-04T05:20:00.128Z,40.00
2019-05-04T05:21:00.193Z,37.80
2019-05-04T05:22:00.192Z,42.60
2019-05-04T05:23:00.270Z,42.10
2019-05-04T05:24:00.282Z,41.90
2019-05-04T05:25:00.340Z,39.30
2019-05-04T05:26:00.395Z,39.90
2019-05-04T05:27:00.431Z,41.90
2019-05-04T05:28:00.472Z,38.20
2019-05-04T05:29:00.516Z,36.50
2019-05-04T05:30:00.569Z,37.50
2019-05-04T05:31:00.615Z,36.20
2019-05-04T05:32:00.654Z,35.70
2019-05-04T05:33:00.716Z,38.40
2019-05-04T05:34:00.752Z,33.70
2019-05-04T05:35:00.780Z,36.10
2019-05-04T05:36:00.852Z,37.30
2019-05-04T05:37:00.874Z,35.80
2019-05-04T05:38:00.943Z,35.30
2019-05-04T05:39:00.975Z,32.70
2019-05-04T05:40:01.279Z,33.80
2019-05-04T05:41:01.075Z,35.20
2019-05-04T05:42:01.150Z,33.70
2019-05-04T05:43:01.163Z,31.40
2019-05-04T05:44:01.214Z,33.30
2019-05-04T05:45:01.259Z,33.00
2019-05-04T05:46:01.293Z,34.50
2019-05-04T05:47:01.356Z,34.90
2019-05-04T05:48:01.403Z,32.30
2019-05-04T05:49:01.538Z,30.80
2019-05-04T05:50:01.482Z,33.40
2019-05-04T05:51:01.534Z,33.50
2019-05-04T05:52:01.781Z,30.30
2019-05-04T05:53:01.634Z,31.10
2019-05-04T05:54:01.681Z,29.80
2019-05-04T05:55:01.723Z,29.40
2019-05-04T05:56:01.811Z,31.30
2019-05-04T05:57:01.819Z,28.80
2019-05-04T05:58:01.883Z,28.70
2019-05-04T05:59:01.902Z,29.50
2019-05-04T06:00:06.814Z,28.00
2019-05-04T06:01:01.982Z,28.60
2019-05-04T06:02:06.322Z,25.70
2019-05-04T06:03:02.063Z,25.00
2019-05-04T06:04:04.590Z,23.50
2019-05-04T06:05:02.165Z,24.30
2019-05-04T06:06:07.269Z,22.50
2019-05-04T06:07:02.271Z,23.00
2019-05-04T06:08:05.596Z,23.00
2019-05-04T06:09:04.233Z,22.00
2019-05-04T06:10:21.291Z,21.20
2019-05-04T06:11:02.435Z,22.10
2019-05-04T06:12:02.512Z,19.40
2019-05-04T06:13:02.540Z,21.20
2019-05-04T06:14:04.634Z,21.40
2019-05-04T06:15:04.362Z,23.20
2019-05-04T06:16:04.647Z,20.70
2019-05-04T06:17:04.376Z,21.00
2019-05-04T06:18:04.292Z,20.20
2019-05-04T06:19:04.849Z,20.00
2019-05-04T06:20:04.611Z,20.20
2019-05-04T06:21:04.755Z,18.40
2019-05-04T06:22:05.018Z,19.90
2019-05-04T06:23:04.568Z,20.70
2019-05-04T06:24:04.745Z,19.90
2019-05-04T06:25:07.474Z,19.00
2019-05-04T06:26:07.248Z,20.20
2019-05-04T06:27:06.559Z,19.90
2019-05-04T06:28:04.921Z,19.20
2019-05-04T06:29:07.171Z,20.50
2019-05-04T06:30:04.951Z,18.20
2019-05-04T06:31:04.914Z,17.90
2019-05-04T06:32:05.067Z,19.90
2019-05-04T06:34:04.435Z,19.00
2019-05-04T06:35:04.566Z,18.70
2019-05-04T06:36:05.230Z,19.50
2019-05-04T06:37:04.728Z,19.40
2019-05-04T06:38:09.920Z,18.90
2019-05-04T06:39:04.357Z,18.40
2019-05-04T06:40:07.419Z,19.00
2019-05-04T06:41:04.574Z,18.70
2019-05-04T06:42:09.034Z,19.70
2019-05-04T06:43:04.431Z,21.20
2019-05-04T06:44:05.468Z,18.50
2019-05-04T06:45:13.269Z,18.60
2019-05-04T06:46:05.211Z,18.40
2019-05-04T06:47:11.808Z,21.10
2019-05-04T06:48:05.456Z,20.20
2019-05-04T06:49:07.900Z,19.70
2019-05-04T06:50:05.064Z,19.20
2019-05-04T06:51:07.539Z,18.70
2019-05-04T06:52:04.884Z,18.40
2019-05-04T06:53:09.515Z,19.00
2019-05-04T06:54:04.465Z,19.00
2019-05-04T06:55:14.794Z,18.90
2019-05-04T06:56:12.829Z,19.00
2019-05-04T06:57:04.782Z,20.00
2019-05-04T06:58:07.790Z,19.20
2019-05-04T06:59:05.905Z,20.60
2019-05-04T07:00:05.141Z,21.30
2019-05-04T07:01:04.753Z,21.60
2019-05-04T07:02:04.832Z,19.80
2019-05-04T07:03:09.534Z,20.10
2019-05-04T07:04:05.110Z,20.20
2019-05-04T07:05:04.933Z,20.30
2019-05-04T07:06:05.939Z,18.40
2019-05-04T07:07:07.721Z,19.00
2019-05-04T07:08:09.071Z,20.40
2019-05-04T07:09:05.109Z,18.20
2019-05-04T07:10:08.952Z,19.60
2019-05-04T07:11:23.871Z,20.10
2019-05-04T07:12:11.051Z,20.00
2019-05-04T07:13:09.091Z,18.20
2019-05-04T07:14:07.799Z,19.80
2019-05-04T07:15:09.715Z,19.70
2019-05-04T07:16:05.443Z,19.30
2019-05-04T07:17:09.562Z,20.00
2019-05-04T07:18:05.522Z,21.10
2019-05-04T07:19:10.092Z,20.00
2019-05-04T07:20:05.625Z,20.20
2019-05-04T07:21:10.316Z,18.80
2019-05-04T07:22:07.440Z,22.20
2019-05-04T07:23:10.229Z,20.80
2019-05-04T07:24:05.793Z,20.20
2019-05-04T07:25:09.180Z,22.90
2019-05-04T07:26:05.887Z,20.50
2019-05-04T07:27:09.359Z,21.00
2019-05-04T07:28:05.985Z,23.40
2019-05-04T07:29:10.112Z,20.90
2019-05-04T07:30:06.069Z,21.40
2019-05-04T07:31:10.111Z,21.40
2019-05-04T07:32:06.168Z,21.00
2019-05-04T07:33:09.255Z,21.70
2019-05-04T07:34:06.693Z,20.60
2019-05-04T07:35:06.369Z,23.70
2019-05-04T07:36:10.687Z,22.20
2019-05-04T07:37:07.710Z,22.30
2019-05-04T07:38:12.353Z,22.70
2019-05-04T07:39:09.537Z,26.30
2019-05-04T07:40:10.182Z,21.60
2019-05-04T07:41:13.836Z,21.10
2019-05-04T07:42:14.654Z,20.80
2019-05-04T07:43:06.715Z,22.70
2019-05-04T07:44:10.060Z,22.70
2019-05-04T07:45:06.777Z,23.10
2019-05-04T07:46:09.456Z,22.90
2019-05-04T07:47:06.848Z,22.60
2019-05-04T07:48:08.925Z,26.00
2019-05-04T07:49:06.949Z,23.50
2019-05-04T07:50:07.009Z,24.40
2019-05-04T07:51:07.046Z,24.10
2019-05-04T07:52:07.087Z,25.70
2019-05-04T07:53:12.668Z,23.60
2019-05-04T07:54:07.172Z,23.40
2019-05-04T07:55:07.202Z,23.80
2019-05-04T07:56:07.279Z,28.00
2019-05-04T07:57:07.318Z,24.80
2019-05-04T07:58:09.253Z,25.50
2019-05-04T07:59:07.402Z,27.90
2019-05-04T08:00:10.229Z,27.00
2019-05-04T08:01:07.487Z,27.30
2019-05-04T08:02:08.497Z,27.30
2019-05-04T08:03:07.581Z,30.40
2019-05-04T08:04:09.502Z,28.60
2019-05-04T08:05:08.643Z,27.50
2019-05-04T08:06:10.156Z,28.60
2019-05-04T08:07:07.783Z,30.10
2019-05-04T08:08:10.639Z,28.60
2019-05-04T08:09:16.653Z,31.20
2019-05-04T08:10:07.938Z,30.20
2019-05-04T08:11:10.420Z,28.20
2019-05-04T08:12:08.363Z,28.60
2019-05-04T08:13:08.052Z,26.90
2019-05-04T08:14:10.748Z,30.30
2019-05-04T08:15:10.495Z,31.30
2019-05-04T08:16:10.028Z,28.40
2019-05-04T08:17:08.200Z,30.30
2019-05-04T08:18:11.200Z,31.10
2019-05-04T08:19:08.300Z,29.90
2019-05-04T08:20:14.898Z,32.00
2019-05-04T08:21:08.416Z,28.80
2019-05-04T08:22:14.346Z,32.10
2019-05-04T08:23:08.485Z,29.30
2019-05-04T08:24:10.816Z,30.10
2019-05-04T08:25:11.156Z,31.30
2019-05-04T08:26:08.605Z,27.40
2019-05-04T08:27:10.289Z,26.00
2019-05-04T08:28:08.707Z,29.20
2019-05-04T08:29:08.798Z,29.00
2019-05-04T08:30:10.034Z,29.20
2019-05-04T08:31:08.847Z,27.50
2019-05-04T08:32:10.049Z,25.90
2019-05-04T08:33:08.914Z,28.30
2019-05-04T08:34:09.302Z,27.10
2019-05-04T08:35:09.028Z,25.80
2019-05-04T08:36:14.159Z,26.20
2019-05-04T08:37:09.119Z,25.00
2019-05-04T08:38:11.442Z,24.50
2019-05-04T08:39:09.216Z,24.10
2019-05-04T08:40:09.266Z,22.60
2019-05-04T08:41:10.972Z,23.10
2019-05-04T08:42:23.838Z,25.20
2019-05-04T08:43:13.602Z,23.50
2019-05-04T08:44:14.395Z,24.30
2019-05-04T08:45:09.957Z,24.70
2019-05-04T08:46:09.566Z,25.80
2019-05-04T08:47:09.907Z,23.30
2019-05-04T08:48:09.616Z,23.00
2019-05-04T08:49:11.994Z,23.80
2019-05-04T08:50:09.714Z,24.00
2019-05-04T08:51:09.746Z,23.30
2019-05-04T08:52:13.765Z,23.00
2019-05-04T08:53:09.817Z,23.90
2019-05-04T08:54:10.693Z,22.80
2019-05-04T08:55:09.969Z,22.60
2019-05-04T08:56:11.108Z,22.40
2019-05-04T08:57:10.009Z,23.60
2019-05-04T08:58:14.929Z,21.70
2019-05-04T08:59:10.118Z,23.30
2019-05-04T09:00:10.146Z,24.20
2019-05-04T09:01:11.623Z,23.90
2019-05-04T09:02:10.240Z,24.30
2019-05-04T09:03:11.312Z,24.10
2019-05-04T09:04:24.447Z,24.40
2019-05-04T09:05:24.668Z,24.30
2019-05-04T09:06:13.961Z,27.80
2019-05-04T09:07:21.470Z,24.70
2019-05-04T09:08:16.413Z,28.40
2019-05-04T09:09:13.311Z,26.80
2019-05-04T09:10:10.644Z,26.00
2019-05-04T09:11:16.657Z,26.80
2019-05-04T09:12:19.853Z,24.40
2019-05-04T09:13:10.755Z,29.40
2019-05-04T09:14:10.797Z,26.10
2019-05-04T09:15:13.748Z,27.60
2019-05-04T09:16:10.882Z,27.30
2019-05-04T09:17:15.773Z,25.80
2019-05-04T09:18:10.983Z,29.50
2019-05-04T09:19:15.532Z,25.10
2019-05-04T09:20:11.082Z,28.30
2019-05-04T09:21:17.961Z,26.30
2019-05-04T09:22:20.275Z,27.10
2019-05-04T09:23:11.215Z,28.70
2019-05-04T09:24:11.247Z,25.90
2019-05-04T09:25:11.311Z,25.60
2019-05-04T09:26:14.580Z,31.00
2019-05-04T09:27:11.378Z,26.60
2019-05-04T09:28:13.623Z,28.50
2019-05-04T09:29:11.455Z,28.60
2019-05-04T09:30:12.493Z,25.70
2019-05-04T09:31:11.565Z,28.90
2019-05-04T09:32:24.387Z,26.40
2019-05-04T09:33:11.645Z,29.20
2019-05-04T09:34:11.723Z,30.00
2019-05-04T09:35:14.875Z,25.70
2019-05-04T09:36:11.809Z,27.70
2019-05-04T09:37:14.655Z,28.40
2019-05-04T09:38:21.434Z,25.50
2019-05-04T09:39:19.877Z,26.20
2019-05-04T09:40:12.066Z,28.70
2019-05-04T09:41:12.025Z,30.10
2019-05-04T09:42:14.015Z,32.00
2019-05-04T09:43:15.837Z,30.90
2019-05-04T09:44:12.161Z,28.60
2019-05-04T09:45:12.200Z,29.00
2019-05-04T09:46:14.162Z,29.10
2019-05-04T09:47:12.302Z,29.60
2019-05-04T09:48:12.356Z,30.00
2019-05-04T09:49:12.445Z,33.40
2019-05-04T09:50:17.522Z,27.20
2019-05-04T09:51:12.489Z,30.50
2019-05-04T09:52:12.545Z,30.90
2019-05-04T09:53:18.066Z,28.60
2019-05-04T09:54:15.066Z,30.20
2019-05-04T09:55:12.685Z,32.60
2019-05-04T09:56:15.829Z,32.50
2019-05-04T09:57:14.920Z,32.90
2019-05-04T09:58:15.727Z,30.40
2019-05-04T09:59:12.829Z,30.60
2019-05-04T10:00:14.976Z,31.90
2019-05-04T10:01:12.959Z,34.50
2019-05-04T10:02:14.527Z,32.60
2019-05-04T10:03:15.312Z,32.70
2019-05-04T10:04:14.679Z,31.90
2019-05-04T10:05:24.814Z,35.10
2019-05-04T10:06:13.171Z,31.90
2019-05-04T10:07:14.859Z,34.80
2019-05-04T10:08:15.037Z,36.80
2019-05-04T10:09:14.600Z,37.80
2019-05-04T10:10:14.316Z,32.90
2019-05-04T10:11:15.007Z,34.50
2019-05-04T10:12:15.238Z,33.10
2019-05-04T10:13:14.284Z,33.80
2019-05-04T10:14:14.702Z,32.60
2019-05-04T10:15:13.616Z,34.20
2019-05-04T10:16:15.310Z,31.30
2019-05-04T10:17:14.228Z,30.20
2019-05-04T10:18:14.647Z,30.90
2019-05-04T10:19:15.128Z,30.50
2019-05-04T10:20:14.354Z,27.90
2019-05-04T10:21:14.620Z,26.80
2019-05-04T10:22:13.960Z,28.70
2019-05-04T10:23:15.393Z,28.30
2019-05-04T10:24:15.628Z,30.10
2019-05-04T10:25:14.031Z,28.30
2019-05-04T10:26:14.470Z,27.80
2019-05-04T10:27:14.590Z,30.10
2019-05-04T10:28:14.714Z,28.00
2019-05-04T10:29:14.747Z,28.30
2019-05-04T10:30:15.113Z,29.50
2019-05-04T10:31:15.529Z,30.20
2019-05-04T10:32:15.222Z,28.40
2019-05-04T10:33:15.076Z,27.00
2019-05-04T10:34:14.969Z,28.30
2019-05-04T10:35:15.374Z,27.40
2019-05-04T10:36:15.151Z,29.20
2019-05-04T10:37:15.155Z,29.60
2019-05-04T10:38:14.646Z,31.50
2019-05-04T10:39:15.355Z,28.00
2019-05-04T10:40:15.325Z,29.90
2019-05-04T10:41:15.362Z,26.80
2019-05-04T10:42:15.117Z,29.90
2019-05-04T10:43:15.174Z,25.80
2019-05-04T10:44:14.940Z,28.50
2019-05-04T10:45:15.300Z,29.60
2019-05-04T10:46:15.067Z,28.10
2019-05-04T10:47:15.105Z,27.10
2019-05-04T10:48:15.161Z,27.10
2019-05-04T10:49:15.190Z,27.60
2019-05-04T10:50:15.242Z,27.60
2019-05-04T10:51:15.286Z,26.60
2019-05-04T10:52:15.339Z,28.50
2019-05-04T10:53:15.370Z,28.10
2019-05-04T10:54:15.429Z,28.80
2019-05-04T10:55:15.489Z,29.20
2019-05-04T10:56:15.523Z,27.70
2019-05-04T10:57:15.585Z,28.20
2019-05-04T10:58:15.638Z,29.20
2019-05-04T10:59:18.767Z,26.90
2019-05-04T11:00:15.701Z,28.40
2019-05-04T11:01:15.782Z,29.60
2019-05-04T11:02:15.880Z,28.80
2019-05-04T11:03:15.887Z,32.60
2019-05-04T11:04:15.918Z,28.60
2019-05-04T11:05:15.974Z,27.50
2019-05-04T11:06:16.022Z,29.20
2019-05-04T11:07:16.082Z,28.30
2019-05-04T11:08:16.123Z,28.00
2019-05-04T11:09:16.183Z,29.40
2019-05-04T11:10:16.214Z,27.10
2019-05-04T11:11:22.770Z,30.10
2019-05-04T11:12:16.310Z,27.70
2019-05-04T11:13:20.064Z,27.30
2019-05-04T11:14:16.425Z,31.70
2019-05-04T11:15:16.451Z,29.10
2019-05-04T11:16:16.496Z,31.90
2019-05-04T11:17:16.572Z,30.10
2019-05-04T11:18:16.630Z,25.90
2019-05-04T11:19:16.640Z,28.50
2019-05-04T11:20:16.727Z,25.00
2019-05-04T11:21:16.767Z,23.90
2019-05-04T11:22:16.830Z,25.80
2019-05-04T11:23:16.880Z,26.80
2019-05-04T11:24:16.923Z,27.50
2019-05-04T11:25:16.977Z,25.80
2019-05-04T11:26:16.991Z,27.30
2019-05-04T11:27:17.081Z,27.60
2019-05-04T11:28:17.105Z,26.90
2019-05-04T11:29:17.167Z,26.60
2019-05-04T11:30:17.232Z,25.00
2019-05-04T11:31:17.262Z,24.20
2019-05-04T11:32:17.362Z,26.10
2019-05-04T11:33:17.374Z,28.30
2019-05-04T11:34:17.425Z,27.90
2019-05-04T11:35:17.473Z,28.60
2019-05-04T11:36:17.525Z,32.40
2019-05-04T11:37:17.578Z,32.50
2019-05-04T11:38:17.616Z,28.00
2019-05-04T11:39:17.712Z,27.30
2019-05-04T11:40:17.725Z,28.10
2019-05-04T11:41:17.782Z,27.60
2019-05-04T11:42:17.833Z,28.80
2019-05-04T11:43:28.884Z,27.70
2019-05-04T11:44:17.972Z,27.60
2019-05-04T11:45:17.997Z,30.60
2019-05-04T11:46:20.481Z,24.10
2019-05-04T11:47:18.090Z,24.70
2019-05-04T11:48:18.138Z,24.40
2019-05-04T11:49:18.201Z,21.50
2019-05-04T11:50:18.255Z,22.70
2019-05-04T11:51:18.340Z,24.70
2019-05-04T11:52:18.401Z,23.50
2019-05-04T11:53:18.896Z,24.20
2019-05-04T11:54:18.447Z,32.70
2019-05-04T11:55:18.504Z,26.20
2019-05-04T11:56:18.559Z,30.00
2019-05-04T11:57:18.612Z,22.30
2019-05-04T11:58:18.665Z,24.60
2019-05-04T11:59:18.714Z,23.00
2019-05-04T12:00:18.802Z,23.00
2019-05-04T12:01:18.827Z,22.30
2019-05-04T12:02:18.878Z,21.90
2019-05-04T12:03:18.950Z,21.90
2019-05-04T12:04:18.984Z,22.50
2019-05-04T12:05:19.052Z,19.50
2019-05-04T12:06:19.092Z,20.00
2019-05-04T12:07:19.142Z,18.60
2019-05-04T12:08:19.214Z,20.30
2019-05-04T12:09:19.259Z,20.40
2019-05-04T12:10:19.312Z,18.70
2019-05-04T12:11:19.354Z,19.80
2019-05-04T12:12:19.428Z,19.50
2019-05-04T12:13:19.471Z,18.90
2019-05-04T12:14:19.527Z,18.50
2019-05-04T12:15:19.609Z,19.40
2019-05-04T12:16:19.643Z,19.10
2019-05-04T12:17:19.705Z,22.30
2019-05-04T12:18:19.758Z,18.60
2019-05-04T12:19:19.790Z,20.30
2019-05-04T12:20:19.840Z,20.60
2019-05-04T12:21:19.908Z,19.30
2019-05-04T12:22:19.960Z,20.00
2019-05-04T12:23:20.001Z,20.70
2019-05-04T12:24:20.059Z,21.60
2019-05-04T12:25:20.126Z,21.70
2019-05-04T12:26:20.173Z,21.80
2019-05-04T12:27:20.223Z,21.60
2019-05-04T12:28:20.274Z,18.90
2019-05-04T12:29:20.334Z,18.70
2019-05-04T12:30:20.401Z,17.20
2019-05-04T12:31:20.444Z,16.60
2019-05-04T12:32:20.509Z,16.40
2019-05-04T12:33:20.533Z,17.90
2019-05-04T12:34:20.607Z,16.30
2019-05-04T12:35:20.682Z,16.20
2019-05-04T12:36:20.733Z,18.70
2019-05-04T12:37:20.783Z,16.40
2019-05-04T12:38:20.834Z,16.60
2019-05-04T12:39:20.881Z,15.80
2019-05-04T12:40:20.929Z,15.60
2019-05-04T12:41:21.013Z,16.00
2019-05-04T12:42:21.038Z,16.00
2019-05-04T12:43:21.120Z,17.50
2019-05-04T12:44:21.160Z,16.40
2019-05-04T12:45:21.213Z,16.90
2019-05-04T12:46:21.273Z,18.10
2019-05-04T12:47:21.328Z,13.80
2019-05-04T12:48:21.838Z,14.80
2019-05-04T12:49:21.445Z,17.90
2019-05-04T12:50:21.500Z,14.00
2019-05-04T12:51:21.551Z,13.80
2019-05-04T12:52:21.660Z,14.90
2019-05-04T12:53:21.657Z,14.60
2019-05-04T12:54:21.718Z,15.40